Latest Weather Observations for Lismore Airport

IDN60801

Issued at 6:32 am EST Monday 4 May 2015 (issued every 30 minutes, with the page automatically refreshed every 10 minutes)

About weather observations | Map of weather stations | Latest weather observations for NSW | Other Formats
Station Details ID: 058214 Name: LISMORE AIRPORT AWS Lat: -28.83 Lon: 153.26 Height: 9.21 m
Data from the previous 72 hours. | See also: Recent months for locations in New South Wales
Date/Time
EST
Temp
°C
App
Temp
°C
Dew
Point
Rel
Hum
%
Delta-T
°C
Wind Press
QNH
hPa
Press
MSL
hPa
Rain
since 9 am
mm
Dir
 
Spd
km/h
Gust
km/h
Spd
kts
Gust
kts
04/06:30am 12.8 13.7 12.8 100 0.0 CALM 0 0 0 0 1013.7 1013.7 0.2
04/06:27am 12.8 13.7 12.8 100 0.0 CALM 0 0 0 0 1013.7 1013.7 0.2
04/06:15am 12.7 13.5 12.7 100 0.0 CALM 0 0 0 0 1013.6 1013.6 0.2
04/06:07am 12.7 13.5 12.7 100 0.0 CALM 0 0 0 0 1013.5 1013.5 0.2
04/06:04am 12.7 13.5 12.7 100 0.0 CALM 0 0 0 0 1013.5 1013.5 0.2
04/06:00am 13.0 13.9 13.0 100 0.0 CALM 0 0 0 0 1013.5 1013.5 0.2
04/05:46am 13.4 12.0 13.4 100 0.0 N 13 15 7 8 1013.3 1013.3 0.2
04/05:30am 13.5 12.1 13.5 100 0.0 N 13 15 7 8 1013.1 1013.1 0.2
04/05:00am 13.7 12.8 13.7 100 0.0 N 11 13 6 7 1012.8 1012.8 0.2
04/04:55am 13.7 13.2 13.7 100 0.0 N 9 11 5 6 1012.8 1012.8 0.2
04/04:36am 13.8 13.3 13.8 100 0.0 NNW 9 11 5 6 1012.6 1012.6 0.2
04/04:30am 13.8 12.9 13.8 100 0.0 NNW 11 15 6 8 1012.6 1012.6 0.2
04/04:00am 14.0 12.8 14.0 100 0.0 N 13 17 7 9 1012.4 1012.4 0.2
04/03:49am 14.0 13.2 14.0 100 0.0 NNW 11 15 6 8 1012.3 1012.3 0.2
04/03:38am 14.0 12.8 14.0 100 0.0 NNW 13 15 7 8 1012.1 1012.1 0.2
04/03:30am 13.9 12.7 13.9 100 0.0 N 13 15 7 8 1012.1 1012.1 0.2
04/03:10am 14.1 13.7 14.1 100 0.0 N 9 15 5 8 1012.2 1012.2 0.2
04/03:02am 14.3 14.0 14.3 100 0.0 NNW 9 13 5 7 1012.3 1012.3 0.2
04/03:00am 14.2 13.8 14.2 100 0.0 NNW 9 13 5 7 1012.2 1012.2 0.2
04/02:33am 14.2 13.5 14.2 100 0.0 N 11 15 6 8 1012.3 1012.3 0.0
04/02:30am 14.2 13.5 14.2 100 0.0 N 11 15 6 8 1012.3 1012.3 0.0
04/02:18am 14.3 13.2 14.3 100 0.0 N 13 15 7 8 1012.4 1012.4 0.0
04/02:08am 14.4 13.7 14.4 100 0.0 N 11 15 6 8 1012.4 1012.4 0.0
04/02:00am 14.6 14.0 14.6 100 0.0 N 11 13 6 7 1012.4 1012.4 0.0
04/01:46am 14.5 14.2 14.5 100 0.0 N 9 11 5 6 1012.6 1012.6 0.0
04/01:30am 14.6 14.0 14.6 100 0.0 N 11 13 6 7 1012.7 1012.7 0.0
04/01:00am 15.0 13.8 15.0 100 0.0 N 15 19 8 10 1012.7 1012.7 0.0
04/12:34am 15.1 14.7 15.1 100 0.0 N 11 17 6 9 1012.7 1012.7 0.0
04/12:30am 15.0 14.5 14.8 99 0.1 N 11 13 6 7 1012.7 1012.7 0.0
04/12:23am 15.0 14.5 14.8 99 0.1 NNW 11 13 6 7 1012.7 1012.7 0.0
04/12:00am 15.1 14.3 15.1 100 0.0 NNW 13 15 7 8 1012.8 1012.8 0.0
 
Date/Time
EST
Temp
°C
App
Temp
°C
Dew
Point
Rel
Hum
%
Delta-T
°C
Wind Press
QNH
hPa
Press
MSL
hPa
Rain
since 9 am
mm
Dir
 
Spd
km/h
Gust
km/h
Spd
kts
Gust
kts
03/11:38pm 15.3 14.6 15.3 100 0.0 N 13 15 7 8 1012.9 1012.9 0.0
03/11:36pm 15.4 14.7 15.4 100 0.0 N 13 15 7 8 1012.9 1012.9 0.0
03/11:30pm 15.6 15.7 15.6 100 0.0 N 9 15 5 8 1013.0 1013.0 0.0
03/11:22pm 15.7 15.9 15.7 100 0.0 NNW 9 13 5 7 1013.1 1013.1 0.0
03/11:00pm 15.7 15.9 15.7 100 0.0 N 9 13 5 7 1013.0 1013.0 0.0
03/10:58pm 15.8 15.6 15.8 100 0.0 N 11 13 6 7 1013.0 1013.0 0.0
03/10:30pm 15.7 16.8 15.7 100 0.0 WNW 4 9 2 5 1013.1 1013.1 0.0
03/10:00pm 16.1 16.4 15.9 99 0.1 N 9 13 5 7 1013.3 1013.3 0.0
03/09:30pm 16.9 16.8 16.9 100 0.0 NNW 13 15 7 8 1013.4 1013.4 0.0
03/09:00pm 16.8 16.6 16.8 100 0.0 NNW 13 15 7 8 1013.2 1013.2 0.0
03/08:30pm 16.5 17.6 16.5 100 0.0 NW 6 9 3 5 1013.1 1013.1 0.0
03/08:00pm 16.1 18.1 15.9 99 0.1 CALM 0 0 0 0 1013.0 1013.0 0.0
03/07:30pm 16.3 16.6 16.1 99 0.1 N 9 11 5 6 1012.8 1012.8 0.0
03/07:00pm 17.1 19.5 16.9 99 0.1 CALM 0 0 0 0 1012.6 1012.6 0.0
03/06:30pm 17.0 19.3 16.8 99 0.1 CALM 0 0 0 0 1012.0 1012.0 0.0
03/06:00pm 18.5 21.4 18.3 99 0.1 CALM 0 0 0 0 1011.4 1011.4 0.0
03/05:30pm 18.9 21.8 18.1 95 0.5 CALM 0 0 0 0 1011.0 1011.0 0.0
03/05:00pm 20.9 22.6 18.5 86 1.5 S 7 9 4 5 1011.0 1011.0 0.0
03/04:30pm 22.0 23.3 18.4 80 2.3 S 9 13 5 7 1010.7 1010.7 0.0
03/04:00pm 22.6 24.0 18.6 78 2.5 SSE 9 11 5 6 1010.4 1010.4 0.0
03/03:30pm 21.6 21.8 17.6 78 2.5 SSE 13 17 7 9 1010.3 1010.3 0.0
03/03:00pm 22.5 23.1 17.6 74 3.0 SE 11 15 6 8 1010.0 1010.0 0.0
03/02:30pm 23.9 23.5 18.1 70 3.6 S 17 22 9 12 1009.7 1009.7 0.0
03/02:00pm 24.5 24.5 17.2 63 4.5 S 13 20 7 11 1009.5 1009.5 0.0
03/01:30pm 23.9 24.3 16.4 63 4.6 SSW 9 15 5 8 1009.5 1009.5 0.0
03/01:00pm 24.0 24.8 17.3 66 4.2 WSW 9 17 5 9 1009.7 1009.7 0.0
03/12:30pm 23.6 26.0 18.0 71 3.5 SSE 2 11 1 6 1010.2 1010.2 0.0
03/12:00pm 23.0 24.9 19.8 82 2.1 SSW 9 15 5 8 1010.7 1010.7 0.0
03/11:30am 21.9 22.6 17.9 78 2.5 WSW 11 20 6 11 1011.3 1011.3 0.0
03/11:00am 21.3 21.8 18.3 83 1.9 WSW 13 17 7 9 1011.7 1011.7 0.0
03/10:30am 21.3 21.9 18.5 84 1.8 WSW 13 15 7 8 1011.7 1011.7 0.0
03/10:00am 21.1 21.2 17.5 80 2.2 W 13 19 7 10 1011.9 1011.9 0.0
03/09:30am 21.2 21.8 18.6 85 1.6 W 13 20 7 11 1011.7 1011.7 0.0
03/09:00am 19.8 22.1 17.6 87 1.3 SSE 2 9 1 5 1011.9 1011.9 0.4
03/08:30am 19.0 21.7 17.7 92 0.8 CALM 0 0 0 0 1011.6 1011.6 0.4
03/08:00am 18.3 21.2 18.1 99 0.1 CALM 0 0 0 0 1011.4 1011.4 0.4
03/07:30am 16.9 18.5 16.9 100 0.0 NE 4 7 2 4 1011.2 1011.2 0.4
03/07:17am 16.8 19.1 16.8 100 0.0 CALM 0 0 0 0 1011.1 1011.1 0.4
03/07:00am 15.8 17.7 15.8 100 0.0 CALM 0 0 0 0 1011.3 1011.3 0.4
03/06:59am 15.8 17.7 15.8 100 0.0 CALM 0 0 0 0 1011.3 1011.3 0.4
03/06:53am 15.6 17.4 15.6 100 0.0 CALM 0 0 0 0 1011.3 1011.3 0.4
03/06:34am 15.4 17.2 15.4 100 0.0 CALM 0 0 0 0 1011.1 1011.1 0.4
03/06:30am 15.6 17.4 15.6 100 0.0 CALM 0 0 0 0 1011.0 1011.0 0.4
03/06:08am 15.8 16.0 15.8 100 0.0 NNW 9 11 5 6 1010.7 1010.7 0.4
03/06:00am 16.0 16.3 16.0 100 0.0 NW 9 11 5 6 1010.6 1010.6 0.4
03/05:44am 15.7 16.3 15.7 100 0.0 N 7 11 4 6 1010.5 1010.5 0.4
03/05:30am 15.7 16.3 15.7 100 0.0 N 7 11 4 6 1010.5 1010.5 0.4
03/05:00am 16.3 18.0 16.3 100 0.0 N 2 9 1 5 1010.4 1010.4 0.4
03/04:30am 16.6 18.8 16.6 100 0.0 CALM 0 0 0 0 1010.3 1010.3 0.4
03/04:07am 16.7 17.6 16.7 100 0.0 SE 7 13 4 7 1010.3 1010.3 0.4
03/04:00am 16.8 18.4 16.8 100 0.0 NE 4 13 2 7 1010.4 1010.4 0.4
03/03:58am 16.5 18.3 16.5 100 0.0 NNE 2 11 1 6 1010.4 1010.4 0.4
03/03:56am 16.4 18.6 16.4 100 0.0 CALM 0 0 0 0 1010.3 1010.3 0.4
03/03:44am 17.1 19.5 17.1 100 0.0 CALM 0 0 0 0 1010.1 1010.1 0.4
03/03:30am 17.1 19.5 17.1 100 0.0 CALM 0 0 0 0 1009.9 1009.9 0.4
03/03:28am 17.0 19.4 17.0 100 0.0 CALM 0 0 0 0 1009.9 1009.9 0.4
03/03:24am 17.2 19.7 17.2 100 0.0 CALM 0 0 0 0 1009.8 1009.8 0.4
03/03:15am 17.4 19.6 17.4 100 0.0 WNW 2 7 1 4 1009.9 1009.9 0.4
03/03:00am 17.4 17.9 17.4 100 0.0 NNW 11 13 6 7 1009.7 1009.7 0.4
03/02:52am 17.7 19.6 17.7 100 0.0 NW 4 13 2 7 1009.7 1009.7 0.4
03/02:49am 17.7 20.0 17.7 100 0.0 NW 2 9 1 5 1009.8 1009.8 0.4
03/02:31am 17.7 19.1 17.7 100 0.0 NNE 7 11 4 6 1009.9 1009.9 0.4
03/02:30am 17.7 19.1 17.7 100 0.0 NNE 7 11 4 6 1009.9 1009.9 0.4
03/02:00am 17.8 19.2 17.8 100 0.0 NNE 7 9 4 5 1009.9 1009.9 0.4
03/01:30am 18.0 18.7 18.0 100 0.0 NW 11 13 6 7 1010.0 1010.0 0.2
03/01:00am 17.7 18.7 17.7 100 0.0 NNE 9 15 5 8 1010.6 1010.6 0.2
03/12:30am 17.8 20.5 17.8 100 0.0 CALM 0 0 0 0 1010.7 1010.7 0.2
03/12:00am 17.9 20.7 17.9 100 0.0 CALM 0 0 0 0 1011.1 1011.1 0.2
 
Date/Time
EST
Temp
°C
App
Temp
°C
Dew
Point
Rel
Hum
%
Delta-T
°C
Wind Press
QNH
hPa
Press
MSL
hPa
Rain
since 9 am
mm
Dir
 
Spd
km/h
Gust
km/h
Spd
kts
Gust
kts
02/11:30pm 18.2 19.8 18.2 100 0.0 S 7 9 4 5 1011.3 1011.3 0.2
02/11:00pm 18.1 19.8 18.1 100 0.0 ESE 6 9 3 5 1011.4 1011.4 0.2
02/10:30pm 18.1 21.0 18.1 100 0.0 CALM 0 0 0 0 1011.2 1011.2 0.2
02/10:00pm 18.3 19.5 18.3 100 0.0 NNE 9 13 5 7 1011.4 1011.4 0.2
02/09:30pm 17.6 20.2 17.6 100 0.0 CALM 0 0 0 0 1011.3 1011.3 0.2
02/09:00pm 19.0 22.3 19.0 100 0.0 CALM 0 0 0 0 1011.1 1011.1 0.2
02/08:43pm 19.4 22.8 19.4 100 0.0 CALM 0 0 0 0 1011.0 1011.0 0.2
02/08:30pm 19.3 22.6 19.1 99 0.1 CALM 0 0 0 0 1011.1 1011.1 0.2
02/08:00pm 20.0 22.6 20.0 100 0.0 SSW 6 13 3 7 1011.4 1011.4 0.2
02/07:30pm 20.1 23.9 20.1 100 0.0 CALM 0 0 0 0 1011.0 1011.0 0.2
02/07:19pm 20.0 23.7 20.0 100 0.0 CALM 0 0 0 0 1010.7 1010.7 0.2
02/07:00pm 20.0 22.4 20.0 100 0.0 SSE 7 9 4 5 1010.6 1010.6 0.2
02/06:30pm 20.4 23.1 20.2 99 0.1 SSE 6 9 3 5 1010.5 1010.5 0.2
02/06:00pm 20.8 23.0 20.5 98 0.2 S 9 11 5 6 1009.9 1009.9 0.2
02/05:30pm 21.3 23.5 20.5 95 0.5 SSE 9 11 5 6 1010.3 1010.3 0.2
02/05:00pm 21.8 24.0 20.3 91 1.0 SSE 9 11 5 6 1010.0 1010.0 0.2
02/04:30pm 22.9 24.7 19.5 81 2.2 S 9 13 5 7 1009.4 1009.4 0.2
02/04:00pm 23.3 24.5 19.9 81 2.2 SSW 13 19 7 10 1009.0 1009.0 0.2
02/03:30pm 24.5 24.7 17.7 66 4.2 S 13 17 7 9 1009.3 1009.3 0.2
02/03:00pm 23.8 24.1 18.0 70 3.6 SSE 13 19 7 10 1009.5 1009.5 0.2
02/02:30pm 23.7 24.5 18.1 71 3.5 SSE 11 17 6 9 1009.7 1009.7 0.2
02/02:00pm 24.0 24.4 18.2 70 3.7 SSE 13 19 7 10 1009.6 1009.6 0.2
02/01:30pm 24.0 24.8 18.2 70 3.6 S 11 15 6 8 1009.8 1009.8 0.2
02/01:00pm 24.4 26.4 19.9 76 2.9 SSW 9 15 5 8 1010.3 1010.3 0.2
02/12:49pm 23.9 25.1 19.8 78 2.6 SW 13 19 7 10 1010.4 1010.4 0.2
02/12:30pm 23.5 24.6 19.6 79 2.5 SW 13 17 7 9 1010.6 1010.6 0.2
02/12:14pm 23.1 25.0 20.6 86 1.6 SW 11 17 6 9 1010.7 1010.7 0.2
02/12:00pm 22.9 24.4 20.6 87 1.5 SW 13 17 7 9 1010.8 1010.8 0.2
02/11:30am 22.7 24.5 19.5 82 2.0 SW 9 11 5 6 1011.0 1011.0 0.2
02/11:00am 22.1 24.8 20.7 92 0.9 W 7 9 4 5 1011.6 1011.6 0.2
02/10:30am 22.2 26.4 21.0 93 0.8 CALM 0 0 0 0 1012.2 1012.2 0.0
02/10:00am 22.0 26.0 20.5 91 1.0 CALM 0 0 0 0 1012.5 1012.5 0.0
02/09:30am 21.8 25.4 19.7 88 1.3 CALM 0 2 0 1 1012.5 1012.5 0.0
02/09:00am 21.4 25.0 19.7 90 1.1 CALM 0 7 0 4 1012.5 1012.5 159.4
02/08:30am 19.7 23.2 19.5 99 0.1 CALM 0 4 0 2 1012.5 1012.5 159.4
02/08:00am 18.8 20.6 18.8 100 0.0 NNE 7 9 4 5 1012.3 1012.3 159.4
02/07:30am 17.4 18.2 17.4 100 0.0 NNE 9 11 5 6 1011.6 1011.6 159.4
02/07:00am 16.5 18.7 16.5 100 0.0 CALM 0 0 0 0 1011.5 1011.5 159.4
02/06:30am 17.1 19.5 17.1 100 0.0 CALM 0 0 0 0 1011.2 1011.2 159.4
02/06:00am 16.9 17.9 16.9 100 0.0 SSW 7 9 4 5 1011.0 1011.0 159.4
02/05:30am 17.7 19.1 17.7 100 0.0 S 7 11 4 6 1010.8 1010.8 159.4
02/05:00am 18.1 19.6 18.1 100 0.0 SE 7 11 4 6 1010.7 1010.7 159.4
02/04:30am 17.8 19.8 17.8 100 0.0 SW 4 13 2 7 1010.1 1010.1 159.4
02/04:00am 19.4 21.5 19.4 100 0.0 NNE 7 13 4 7 1010.1 1010.1 159.4
02/03:30am 20.3 21.6 20.1 99 0.1 E 13 22 7 12 1009.9 1009.9 159.4
02/03:00am 20.2 21.9 20.2 100 0.0 E 11 17 6 9 1010.3 1010.3 159.4
02/02:30am 20.1 22.5 20.1 100 0.0 E 7 13 4 7 1009.9 1009.9 159.4
02/02:00am 20.2 21.2 20.2 100 0.0 E 15 28 8 15 1009.9 1009.9 159.4
02/01:56am 20.1 20.6 20.1 100 0.0 ENE 17 24 9 13 1009.9 1009.9 159.4
02/01:30am 20.8 21.1 20.8 100 0.0 NE 20 37 11 20 1010.1 1010.1 155.8
02/01:25am 21.1 20.7 20.9 99 0.1 ENE 24 46 13 25 1009.6 1009.6 154.0
02/01:00am 22.0 20.3 19.7 87 1.5 E 28 44 15 24 1009.3 1009.3 152.8
02/12:31am 21.5 20.1 19.6 89 1.2 E 26 57 14 31 1009.1 1009.1 152.8
02/12:30am 21.4 20.1 19.9 91 1.0 E 26 54 14 29 1009.0 1009.0 152.8
02/12:28am 21.4 20.0 19.7 90 1.1 E 26 54 14 29 1009.0 1009.0 152.8
02/12:14am 21.1 20.3 20.8 98 0.2 ENE 26 46 14 25 1009.3 1009.3 152.8
02/12:08am 21.2 20.1 21.0 99 0.1 ENE 28 46 15 25 1009.3 1009.3 152.8
02/12:00am 21.1 20.8 21.1 100 0.0 E 24 39 13 21 1009.5 1009.5 152.6
 
Date/Time
EST
Temp
°C
App
Temp
°C
Dew
Point
Rel
Hum
%
Delta-T
°C
Wind Press
QNH
hPa
Press
MSL
hPa
Rain
since 9 am
mm
Dir
 
Spd
km/h
Gust
km/h
Spd
kts
Gust
kts
01/11:30pm 21.2 20.2 21.2 100 0.0 E 28 43 15 23 1009.7 1009.7 149.0
01/11:00pm 21.3 21.8 21.1 99 0.1 E 20 35 11 19 1010.2 1010.2 148.0
01/10:48pm 21.1 20.8 21.1 100 0.0 E 24 54 13 29 1010.4 1010.4 148.0
01/10:30pm 20.6 20.8 20.6 100 0.0 E 20 37 11 20 1010.5 1010.5 148.0
01/10:04pm 19.6 19.9 19.6 100 0.0 SSE 17 22 9 12 1010.9 1010.9 148.0
01/10:03pm 19.6 19.9 19.6 100 0.0 SSE 17 22 9 12 1010.8 1010.8 147.8
01/10:00pm 19.5 19.8 19.5 100 0.0 SSE 17 22 9 12 1011.0 1011.0 147.6
01/09:50pm 19.5 20.1 19.5 100 0.0 SE 15 24 8 13 1011.3 1011.3 146.6
01/09:30pm 19.5 19.8 19.5 100 0.0 ESE 17 37 9 20 1011.9 1011.9 142.8
01/09:12pm 19.3 20.2 19.3 100 0.0 ESE 13 20 7 11 1011.8 1011.8 137.4
01/09:00pm 19.4 18.7 19.4 100 0.0 SSE 22 32 12 17 1011.6 1011.6 135.6
01/08:59pm 19.3 18.1 19.3 100 0.0 SSE 24 32 13 17 1011.6 1011.6 135.2
01/08:30pm 18.8 19.5 18.8 100 0.0 S 13 19 7 10 1012.5 1012.5 128.0
01/08:00pm 18.8 18.4 18.8 100 0.0 SSE 19 28 10 15 1013.0 1013.0 121.4
01/07:41pm 18.9 19.3 18.9 100 0.0 SE 15 24 8 13 1013.0 1013.0 107.2
01/07:30pm 18.8 17.8 18.8 100 0.0 SSE 22 30 12 16 1012.9 1012.9 105.8
01/07:14pm 18.3 17.6 18.3 100 0.0 SSW 19 24 10 13 1013.2 1013.2 98.2
01/07:00pm 17.7 17.2 17.7 100 0.0 S 17 20 9 11 1013.6 1013.6 95.2
01/06:30pm 17.6 14.5 17.6 100 0.0 SSE 30 48 16 26 1013.2 1013.2 77.8
01/06:29pm 17.6 14.5 17.6 100 0.0 SSE 30 48 16 26 1013.2 1013.2 77.4
01/06:28pm 17.6 14.2 17.6 100 0.0 SSE 32 48 17 26 1013.1 1013.1 77.0
01/06:16pm 17.9 14.4 17.9 100 0.0 SSE 33 46 18 25 1012.8 1012.8 75.4
01/06:06pm 18.0 14.2 18.0 100 0.0 SSE 35 54 19 29 1012.9 1012.9 75.0
01/06:01pm 18.0 14.5 18.0 100 0.0 SSE 33 46 18 25 1013.0 1013.0 74.8
01/06:00pm 18.0 14.5 18.0 100 0.0 SSE 33 46 18 25 1012.9 1012.9 74.8
01/05:59pm 18.0 14.5 18.0 100 0.0 SSE 33 46 18 25 1012.9 1012.9 74.6
01/05:37pm 17.9 14.6 17.9 100 0.0 SE 32 44 17 24 1013.2 1013.2 72.2
01/05:33pm 18.2 15.8 18.2 100 0.0 SE 28 46 15 25 1013.3 1013.3 70.0
01/05:31pm 18.3 16.3 18.3 100 0.0 SE 26 46 14 25 1013.3 1013.3 69.4
01/05:30pm 18.2 16.2 18.2 100 0.0 SE 26 46 14 25 1013.2 1013.2 69.2
01/05:08pm 18.3 16.7 18.3 100 0.0 E 24 57 13 31 1013.9 1013.9 64.4
01/05:00pm 18.2 16.2 18.2 100 0.0 SE 26 61 14 33 1013.8 1013.8 62.6
01/04:58pm 18.2 16.9 18.2 100 0.0 SE 22 61 12 33 1014.0 1014.0 60.8
01/04:55pm 18.4 18.2 18.4 100 0.0 SSE 17 26 9 14 1014.1 1014.1 56.2
01/04:52pm 18.4 18.5 18.4 100 0.0 SSE 15 20 8 11 1013.7 1013.7 55.2
01/04:30pm 18.3 18.0 18.3 100 0.0 SE 17 26 9 14 1013.4 1013.4 52.4
01/04:29pm 18.4 18.2 18.4 100 0.0 SE 17 26 9 14 1013.3 1013.3 52.2
01/04:25pm 18.4 17.6 18.4 100 0.0 SE 20 30 11 16 1013.4 1013.4 50.6
01/04:11pm 18.2 17.3 18.2 100 0.0 SSE 20 33 11 18 1013.7 1013.7 49.4
01/04:00pm 18.3 17.6 18.3 100 0.0 SSE 19 24 10 13 1013.9 1013.9 49.2
01/03:40pm 17.7 16.6 17.7 100 0.0 SSW 20 26 11 14 1014.2 1014.2 46.2
01/03:35pm 17.6 16.6 17.6 100 0.0 SSW 19 26 10 14 1014.2 1014.2 45.0
01/03:30pm 17.6 16.6 17.6 100 0.0 SSW 19 24 10 13 1014.1 1014.1 44.8
01/03:00pm 17.5 16.5 17.5 100 0.0 SSW 19 24 10 13 1014.7 1014.7 44.0
01/02:56pm 17.5 16.3 17.5 100 0.0 SSW 20 24 11 13 1014.7 1014.7 44.0
01/02:41pm 17.3 15.6 17.3 100 0.0 SSW 22 28 12 15 1014.6 1014.6 43.8
01/02:34pm 17.4 16.3 17.4 100 0.0 SSW 19 26 10 14 1014.8 1014.8 42.4
01/02:30pm 17.4 16.7 17.4 100 0.0 SSW 17 20 9 11 1014.8 1014.8 42.4
01/02:16pm 17.4 17.1 17.4 100 0.0 SSW 15 19 8 10 1015.1 1015.1 41.4
01/02:00pm 16.9 17.2 16.9 100 0.0 SW 11 15 6 8 1015.5 1015.5 39.4
01/01:30pm 17.4 17.5 17.4 100 0.0 NE 13 17 7 9 1016.2 1016.2 31.6
01/01:28pm 17.3 17.3 17.3 100 0.0 E 13 19 7 10 1016.2 1016.2 31.2
01/01:00pm 18.0 17.5 17.8 99 0.1 SSE 17 24 9 13 1015.5 1015.5 29.6
01/12:52pm 18.0 18.0 18.0 100 0.0 SSE 15 20 8 11 1016.0 1016.0 29.6
01/12:31pm 17.8 16.3 17.8 100 0.0 SE 22 35 12 19 1016.8 1016.8 28.2
01/12:30pm 17.8 16.7 17.8 100 0.0 SE 20 35 11 19 1016.8 1016.8 27.8
01/12:07pm 18.2 18.2 18.2 100 0.0 SSE 15 28 8 15 1016.8 1016.8 26.2
01/12:01pm 18.2 18.2 18.2 100 0.0 SSE 15 20 8 11 1017.3 1017.3 26.2
01/12:00pm 18.2 17.9 18.2 100 0.0 SSE 17 26 9 14 1017.4 1017.4 26.2
01/11:39am 17.8 14.8 17.8 100 0.0 SSE 30 44 16 24 1017.8 1017.8 22.2
01/11:30am 18.0 16.6 18.0 100 0.0 SSE 22 39 12 21 1018.0 1018.0 13.0
01/11:27am 17.9 17.1 17.9 100 0.0 S 19 32 10 17 1018.2 1018.2 9.4
01/11:00am 17.8 17.3 17.8 100 0.0 S 17 22 9 12 1018.7 1018.7 6.4
01/10:30am 17.6 16.6 17.6 100 0.0 SE 19 28 10 15 1019.2 1019.2 4.8
01/10:16am 17.0 16.1 16.8 99 0.1 SE 17 26 9 14 1019.5 1019.5 4.8
01/10:00am 17.5 16.9 17.5 100 0.0 E 17 28 9 15 1020.3 1020.3 4.0
01/09:57am 17.5 17.3 17.5 100 0.0 ESE 15 28 8 15 1020.4 1020.4 3.6
01/09:37am 17.6 17.0 17.6 100 0.0 SSE 17 28 9 15 1019.8 1019.8 2.0
01/09:30am 17.2 16.1 17.2 100 0.0 SSE 19 30 10 16 1019.9 1019.9 2.0
01/09:18am 17.0 16.5 17.0 100 0.0 SSE 15 41 8 22 1020.4 1020.4 1.4
01/09:00am 16.5 15.8 16.5 100 0.0 SSE 15 17 8 9 1020.5 1020.5 47.0
01/08:59am 16.5 15.8 16.5 100 0.0 SSE 15 17 8 9 1020.5 1020.5 47.0
01/08:30am 16.0 16.9 16.0 100 0.0 ESE 6 11 3 6 1021.1 1021.1 45.0
01/08:26am 16.0 16.9 16.0 100 0.0 SE 6 11 3 6 1021.2 1021.2 44.4
01/08:00am 16.0 16.7 16.0 100 0.0 W 7 11 4 6 1020.6 1020.6 43.0
01/07:30am 15.8 17.3 15.8 100 0.0 NNE 2 6 1 3 1020.7 1020.7 42.6
01/07:00am 15.7 15.5 15.7 100 0.0 SW 11 15 6 8 1020.3 1020.3 42.4

Other Formats:

Comma delimited format used in spreadsheet applications
http://www.bom.gov.au/fwo/IDN60801/IDN60801.94572.axf

JavaScript Object Notation format (JSON) in row-major order
http://www.bom.gov.au/fwo/IDN60801/IDN60801.94572.json